createdAt,value
2022-10-17T00:01:56.173Z,86910.40
2022-10-17T00:04:25.566Z,86913.20
2022-10-17T00:06:54.685Z,86913.20
2022-10-17T00:09:23.967Z,86913.60
2022-10-17T00:11:53.474Z,86915.40
2022-10-17T00:14:22.874Z,86919.60
2022-10-17T00:16:52.383Z,86916.80
2022-10-17T00:19:21.568Z,86924.00
2022-10-17T00:21:51.586Z,86922.60
2022-10-17T00:24:20.876Z,86921.60
2022-10-17T00:26:51.202Z,86921.60
2022-10-17T00:29:20.436Z,86917.00
2022-10-17T00:31:49.770Z,86923.40
2022-10-17T00:34:19.181Z,86925.00
2022-10-17T00:36:48.544Z,86920.80
2022-10-17T00:39:17.796Z,86919.40
2022-10-17T00:41:47.098Z,86914.00
2022-10-17T00:44:31.753Z,86918.60
2022-10-17T00:47:07.609Z,86916.00
2022-10-17T00:49:39.908Z,86917.20
2022-10-17T00:52:26.776Z,86919.00
2022-10-17T00:55:26.931Z,86923.60
2022-10-17T00:57:56.751Z,86928.00
2022-10-17T01:00:26.783Z,86926.00
2022-10-17T01:02:55.860Z,86933.60
2022-10-17T01:05:25.198Z,86932.00
2022-10-17T01:07:56.298Z,86934.60
2022-10-17T01:10:51.759Z,86932.40
2022-10-17T01:13:53.087Z,86934.00
2022-10-17T01:16:53.454Z,86934.00
2022-10-17T01:20:08.152Z,86935.40
2022-10-17T01:22:49.299Z,86938.60
2022-10-17T01:25:44.912Z,86944.20
2022-10-17T01:29:02.209Z,86947.80
2022-10-17T01:32:22.234Z,86948.80
2022-10-17T01:35:11.449Z,86950.60
2022-10-17T01:38:12.436Z,86952.80
2022-10-17T01:41:17.704Z,86953.80
2022-10-17T01:44:32.961Z,86957.60
2022-10-17T01:47:17.321Z,86959.80
2022-10-17T01:49:51.149Z,86959.20
2022-10-17T01:52:36.083Z,86959.00
2022-10-17T01:55:27.094Z,86963.40
2022-10-17T01:58:04.759Z,86970.20
2022-10-17T02:00:36.929Z,86962.80
2022-10-17T02:03:14.679Z,86963.40
2022-10-17T02:05:46.776Z,86962.40
2022-10-17T02:08:26.229Z,86965.60
2022-10-17T02:11:08.804Z,86962.00
2022-10-17T02:13:49.931Z,86966.00
2022-10-17T02:16:43.494Z,86968.00
2022-10-17T02:19:40.101Z,86971.80
2022-10-17T02:22:32.462Z,86967.20
2022-10-17T02:25:45.175Z,86968.60
2022-10-17T02:28:45.969Z,86971.80
2022-10-17T02:32:04.538Z,86973.20
2022-10-17T02:34:51.444Z,86974.60
2022-10-17T02:37:28.035Z,86973.80
2022-10-17T02:40:02.081Z,86974.40
2022-10-17T02:42:32.590Z,86980.00
2022-10-17T02:45:04.090Z,86983.60
2022-10-17T02:48:35.103Z,86986.00
2022-10-17T02:51:28.238Z,86986.40
2022-10-17T02:54:41.016Z,86985.60
2022-10-17T02:57:41.232Z,86985.20
2022-10-17T03:00:15.277Z,86992.80
2022-10-17T03:02:50.898Z,86988.80
2022-10-17T03:05:31.252Z,86990.80
2022-10-17T03:08:00.444Z,86990.40
2022-10-17T03:10:29.570Z,86990.80
2022-10-17T03:12:58.793Z,86986.80
2022-10-17T03:15:28.143Z,86988.60
2022-10-17T03:17:57.979Z,86989.80
2022-10-17T03:20:27.273Z,86983.20
2022-10-17T03:22:56.830Z,86990.20
2022-10-17T03:25:26.005Z,86985.80
2022-10-17T03:27:55.796Z,86994.00
2022-10-17T03:30:25.061Z,86990.40
2022-10-17T03:32:54.382Z,86986.80
2022-10-17T03:35:23.603Z,86988.40
2022-10-17T03:37:53.116Z,86983.80
2022-10-17T03:40:22.592Z,86984.60
2022-10-17T03:42:51.708Z,86981.40
2022-10-17T03:45:21.077Z,86982.00
2022-10-17T03:47:50.233Z,86981.60
2022-10-17T03:50:19.342Z,86985.20
2022-10-17T03:52:52.276Z,86981.40
2022-10-17T03:55:21.337Z,86983.80
2022-10-17T03:57:50.641Z,86988.60
2022-10-17T04:00:19.829Z,86990.80
2022-10-17T04:02:49.023Z,86986.60
2022-10-17T04:05:19.134Z,86985.40
2022-10-17T04:07:48.562Z,86989.40
2022-10-17T04:10:17.935Z,86989.40
2022-10-17T04:12:47.180Z,86992.80
2022-10-17T04:15:16.453Z,86993.80
2022-10-17T04:17:48.434Z,86999.40
2022-10-17T04:20:18.166Z,87002.00
2022-10-17T04:22:47.249Z,86997.20
2022-10-17T04:25:16.373Z,87001.00
2022-10-17T04:27:45.522Z,87003.80
2022-10-17T04:30:14.616Z,87002.80
2022-10-17T04:32:43.901Z,87009.60
2022-10-17T04:35:13.126Z,87007.00
2022-10-17T04:37:42.159Z,87007.60
2022-10-17T04:40:12.254Z,87011.00
2022-10-17T04:42:41.633Z,87009.60
2022-10-17T04:45:11.443Z,87009.80
2022-10-17T04:47:40.571Z,87016.00
2022-10-17T04:50:10.196Z,87013.40
2022-10-17T04:52:39.351Z,87006.60
2022-10-17T04:55:09.546Z,87013.00
2022-10-17T04:57:38.995Z,87013.60
2022-10-17T05:00:10.642Z,87015.20
2022-10-17T05:02:39.529Z,87016.00
2022-10-17T05:05:09.424Z,87015.20
2022-10-17T05:07:42.664Z,87019.00
2022-10-17T05:10:11.939Z,87020.60
2022-10-17T05:12:41.175Z,87017.00
2022-10-17T05:15:11.446Z,87017.80
2022-10-17T05:17:40.392Z,87015.60
2022-10-17T05:20:11.024Z,87018.40
2022-10-17T05:22:42.054Z,87020.60
2022-10-17T05:25:11.554Z,87021.00
2022-10-17T05:27:40.731Z,87018.60
2022-10-17T05:30:10.858Z,87019.80
2022-10-17T05:32:39.910Z,87020.20
2022-10-17T05:35:09.435Z,87022.20
2022-10-17T05:37:38.557Z,87018.20
2022-10-17T05:40:08.330Z,87014.60
2022-10-17T05:42:37.398Z,87017.40
2022-10-17T05:45:07.066Z,87017.60
2022-10-17T05:47:35.905Z,87019.00
2022-10-17T05:50:05.077Z,87020.20
2022-10-17T05:52:33.923Z,87023.60
2022-10-17T05:55:03.047Z,87021.40
2022-10-17T05:57:32.170Z,87024.60
2022-10-17T06:00:01.942Z,87026.00
2022-10-17T06:02:31.296Z,87032.00
2022-10-17T06:05:00.549Z,87033.80
2022-10-17T06:07:29.786Z,87038.00
2022-10-17T06:10:00.010Z,87031.80
2022-10-17T06:12:29.231Z,87036.80
2022-10-17T06:14:58.325Z,87033.00
2022-10-17T06:17:27.299Z,87031.40
2022-10-17T06:19:56.215Z,87027.00
2022-10-17T06:22:25.513Z,87028.40
2022-10-17T06:24:54.799Z,87019.60
2022-10-17T06:27:24.914Z,87023.60
2022-10-17T06:29:54.026Z,87023.60
2022-10-17T06:32:23.168Z,87024.20
2022-10-17T06:34:52.211Z,87026.20
2022-10-17T06:37:21.186Z,87027.80
2022-10-17T06:39:52.753Z,87024.00
2022-10-17T06:42:21.718Z,87026.00
2022-10-17T06:44:50.693Z,87025.00
2022-10-17T06:47:20.239Z,87031.40
2022-10-17T06:49:49.196Z,87029.40
2022-10-17T06:52:18.363Z,87034.80
2022-10-17T06:54:47.242Z,87032.60
2022-10-17T06:57:16.304Z,87035.60
2022-10-17T06:59:45.710Z,87035.80
2022-10-17T07:02:14.789Z,87033.80
2022-10-17T07:04:43.779Z,87037.40
2022-10-17T07:07:12.717Z,87039.20
2022-10-17T07:09:41.894Z,87040.80
2022-10-17T07:12:13.145Z,87038.60
2022-10-17T07:14:42.231Z,87037.60
2022-10-17T07:17:11.801Z,87036.80
2022-10-17T07:19:40.813Z,87033.20
2022-10-17T07:22:09.723Z,87031.40
2022-10-17T07:24:39.287Z,87034.00
2022-10-17T07:27:08.348Z,87035.40
2022-10-17T07:29:37.618Z,87039.40
2022-10-17T07:32:09.682Z,87048.20
2022-10-17T07:34:39.477Z,87051.40
2022-10-17T07:37:10.935Z,87053.80
2022-10-17T07:39:41.195Z,87054.40
2022-10-17T07:42:10.416Z,87053.60
2022-10-17T07:44:39.291Z,87055.00
2022-10-17T07:47:08.367Z,87053.40
2022-10-17T07:49:37.279Z,87052.20
2022-10-17T07:52:06.249Z,87046.20
2022-10-17T07:54:38.471Z,87049.00
2022-10-17T07:57:08.023Z,87048.20
2022-10-17T07:59:39.558Z,87051.00
2022-10-17T08:02:10.679Z,87048.60
2022-10-17T08:04:40.208Z,87049.00
2022-10-17T08:07:21.773Z,87050.00
2022-10-17T08:09:53.274Z,87051.00
2022-10-17T08:12:22.303Z,87047.40
2022-10-17T08:14:51.447Z,87051.40
2022-10-17T08:17:20.411Z,87057.60
2022-10-17T08:19:49.378Z,87055.20
2022-10-17T08:22:18.320Z,87055.80
2022-10-17T08:24:47.615Z,87052.40
2022-10-17T08:27:22.323Z,87053.80
2022-10-17T08:29:55.206Z,87052.00
2022-10-17T08:32:28.353Z,87051.00
2022-10-17T08:34:58.496Z,87053.40
2022-10-17T08:37:27.763Z,87054.40
2022-10-17T08:39:57.159Z,87055.20
2022-10-17T08:42:52.885Z,87052.40
2022-10-17T08:45:53.153Z,87058.00
2022-10-17T08:48:27.379Z,87056.20
2022-10-17T08:51:08.757Z,87058.80
2022-10-17T08:53:44.957Z,87054.80
2022-10-17T08:56:47.648Z,87056.00
2022-10-17T08:59:30.158Z,87049.60
2022-10-17T09:02:02.035Z,87047.20
2022-10-17T09:04:52.364Z,87050.40
2022-10-17T09:07:40.111Z,87050.60
2022-10-17T09:10:34.353Z,87051.40
2022-10-17T09:13:39.661Z,87047.20
2022-10-17T09:16:20.494Z,87049.40
2022-10-17T09:19:18.613Z,87054.80
2022-10-17T09:22:11.955Z,87054.60
2022-10-17T09:25:13.831Z,87053.40
2022-10-17T09:28:16.381Z,87058.80
2022-10-17T09:31:05.324Z,87056.40
2022-10-17T09:33:54.672Z,87054.60
2022-10-17T09:36:35.860Z,87051.20
2022-10-17T09:39:20.545Z,87045.40
2022-10-17T09:41:57.566Z,87040.20
2022-10-17T09:44:37.290Z,87043.40
2022-10-17T09:47:29.770Z,87045.00
2022-10-17T09:49:58.774Z,87044.40
2022-10-17T09:52:41.670Z,87043.40
2022-10-17T09:55:24.189Z,87048.40
2022-10-17T09:57:58.003Z,87044.40
2022-10-17T10:00:40.339Z,87038.60
2022-10-17T10:03:18.221Z,87042.60
2022-10-17T10:06:16.346Z,87046.60
2022-10-17T10:08:56.297Z,87043.60
2022-10-17T10:11:59.151Z,87045.00
2022-10-17T10:14:35.444Z,87041.40
2022-10-17T10:17:08.435Z,87042.20
2022-10-17T10:19:41.188Z,87039.80
2022-10-17T10:22:24.996Z,87047.40
2022-10-17T10:25:12.720Z,87044.40
2022-10-17T10:27:45.469Z,87043.40
2022-10-17T10:30:28.551Z,87046.80
2022-10-17T10:33:01.707Z,87043.80
2022-10-17T10:35:39.292Z,87046.40
2022-10-17T10:38:18.243Z,87035.40
2022-10-17T10:40:51.396Z,87042.00
2022-10-17T10:43:45.409Z,87044.60
2022-10-17T10:46:28.806Z,87048.20
2022-10-17T10:49:01.820Z,87044.60
2022-10-17T10:51:49.381Z,87044.60
2022-10-17T10:54:24.051Z,87042.20
2022-10-17T10:56:59.319Z,87040.80
2022-10-17T10:59:39.499Z,87040.40
2022-10-17T11:02:43.947Z,87043.80
2022-10-17T11:05:47.715Z,87044.20
2022-10-17T11:08:38.021Z,87041.60
2022-10-17T11:11:40.091Z,87036.80
2022-10-17T11:14:43.527Z,87039.00
2022-10-17T11:17:24.182Z,87037.20
2022-10-17T11:20:22.577Z,87036.60
2022-10-17T11:23:02.445Z,87041.40
2022-10-17T11:25:39.390Z,87039.20
2022-10-17T11:28:21.718Z,87037.20
2022-10-17T11:30:58.965Z,87029.20
2022-10-17T11:33:58.934Z,87035.40
2022-10-17T11:36:45.664Z,87036.00
2022-10-17T11:39:27.477Z,87039.80
2022-10-17T11:42:10.422Z,87037.00
2022-10-17T11:44:45.906Z,87037.00
2022-10-17T11:47:48.143Z,87038.20
2022-10-17T11:53:35.973Z,87038.80
2022-10-17T11:56:05.270Z,87039.80
2022-10-17T11:59:45.258Z,87037.80
2022-10-17T12:02:31.128Z,87040.60
2022-10-17T12:06:00.840Z,87034.20
2022-10-17T12:09:23.273Z,87037.60
2022-10-17T12:11:54.942Z,87035.80
2022-10-17T12:14:46.145Z,87027.60
2022-10-17T12:17:40.205Z,87028.40
2022-10-17T12:20:28.461Z,87025.00
2022-10-17T12:23:24.159Z,87029.00
2022-10-17T12:26:03.078Z,87026.20
2022-10-17T12:28:47.230Z,87029.40
2022-10-17T12:31:22.795Z,87021.60
2022-10-17T12:34:04.705Z,87026.60
2022-10-17T12:36:33.542Z,87022.00
2022-10-17T12:39:05.594Z,87020.80
2022-10-17T12:41:41.717Z,87024.60
2022-10-17T12:44:17.098Z,87023.00
2022-10-17T12:46:54.214Z,87028.00
2022-10-17T12:49:38.332Z,87032.80
2022-10-17T12:52:28.857Z,87029.00
2022-10-17T12:55:13.767Z,87028.20
2022-10-17T12:58:05.362Z,87022.60
2022-10-17T13:01:11.843Z,87027.60
2022-10-17T13:03:49.328Z,87025.80
2022-10-17T13:06:30.881Z,87028.60
2022-10-17T13:09:10.923Z,87033.40
2022-10-17T13:11:41.869Z,87031.20
2022-10-17T13:14:24.905Z,87035.00
2022-10-17T13:17:01.073Z,87033.60
2022-10-17T13:19:47.083Z,87035.60
2022-10-17T13:22:29.883Z,87037.60
2022-10-17T13:25:17.278Z,87031.40
2022-10-17T13:27:46.889Z,87028.20
2022-10-17T13:30:33.826Z,87031.00
2022-10-17T13:33:04.830Z,87032.40
2022-10-17T13:35:59.594Z,87030.20
2022-10-17T13:38:36.658Z,87039.40
2022-10-17T13:41:35.999Z,87042.60
2022-10-17T13:44:15.419Z,87046.40
2022-10-17T13:46:46.139Z,87053.00
2022-10-17T13:49:40.959Z,87053.80
2022-10-17T13:52:23.945Z,87049.20
2022-10-17T13:54:55.152Z,87053.00
2022-10-17T13:57:32.089Z,87053.40
2022-10-17T14:00:12.659Z,87055.60
2022-10-17T14:02:43.454Z,87063.80
2022-10-17T14:05:20.721Z,87065.40
2022-10-17T14:08:18.015Z,87065.00
2022-10-17T14:10:51.236Z,87059.80
2022-10-17T14:13:31.117Z,87058.20
2022-10-17T14:16:04.529Z,87056.80
2022-10-17T14:18:38.627Z,87057.20
2022-10-17T14:24:19.469Z,87054.40
2022-10-17T14:27:01.892Z,87055.40
2022-10-17T14:29:52.870Z,87049.80
2022-10-17T14:32:23.558Z,87054.80
2022-10-17T14:35:17.868Z,87059.20
2022-10-17T14:37:53.315Z,87060.00
2022-10-17T14:40:31.696Z,87063.20
2022-10-17T14:43:06.802Z,87059.00
2022-10-17T14:45:40.697Z,87065.60
2022-10-17T14:48:24.090Z,87060.80
2022-10-17T14:51:15.697Z,87063.20
2022-10-17T14:54:19.597Z,87062.00
2022-10-17T14:56:55.361Z,87058.00
2022-10-17T14:59:52.201Z,87062.20
2022-10-17T15:02:16.334Z,87062.80
2022-10-17T15:04:45.408Z,87070.40
2022-10-17T15:07:20.125Z,87064.60
2022-10-17T15:09:52.994Z,87064.00
2022-10-17T15:12:26.296Z,87062.40
2022-10-17T15:14:55.944Z,87057.60
2022-10-17T15:17:32.289Z,87059.00
2022-10-17T15:20:01.840Z,87062.40
2022-10-17T15:22:32.596Z,87068.00
2022-10-17T15:25:01.986Z,87067.20
2022-10-17T15:27:33.433Z,87063.00
2022-10-17T15:30:02.593Z,87064.80
2022-10-17T15:32:31.442Z,87070.00
2022-10-17T15:35:02.713Z,87074.40
2022-10-17T15:37:36.175Z,87071.00
2022-10-17T15:40:07.129Z,87070.80
2022-10-17T15:42:36.351Z,87071.20
2022-10-17T15:45:05.843Z,87073.80
2022-10-17T15:47:35.561Z,87065.40
2022-10-17T15:50:05.834Z,87069.00
2022-10-17T15:52:34.868Z,87062.80
2022-10-17T15:55:05.343Z,87059.60
2022-10-17T15:57:40.351Z,87064.60
2022-10-17T16:00:19.425Z,87065.60
2022-10-17T16:02:50.859Z,87070.00
2022-10-17T16:05:27.972Z,87060.60
2022-10-17T16:07:58.673Z,87062.40
2022-10-17T16:10:28.328Z,87058.80
2022-10-17T16:12:57.309Z,87053.00
2022-10-17T16:15:29.930Z,87050.80
2022-10-17T16:18:01.782Z,87050.60
2022-10-17T16:20:33.538Z,87051.80
2022-10-17T16:23:04.122Z,87054.00
2022-10-17T16:25:34.340Z,87047.00
2022-10-17T16:28:03.716Z,87053.60
2022-10-17T16:30:34.494Z,87052.00
2022-10-17T16:33:03.414Z,87052.80
2022-10-17T16:35:36.658Z,87050.00
2022-10-17T16:38:08.994Z,87048.40
2022-10-17T16:40:41.433Z,87050.80
2022-10-17T16:43:14.881Z,87049.40
2022-10-17T16:45:43.967Z,87045.40
2022-10-17T16:48:13.265Z,87044.40
2022-10-17T16:50:42.778Z,87045.00
2022-10-17T16:53:11.762Z,87044.40
2022-10-17T16:55:43.528Z,87043.00
2022-10-17T16:58:12.883Z,87035.40
2022-10-17T17:00:42.502Z,87034.80
2022-10-17T17:03:11.571Z,87030.80
2022-10-17T17:05:41.030Z,87028.40
2022-10-17T17:08:12.470Z,87022.00
2022-10-17T17:10:47.446Z,87026.60
2022-10-17T17:13:16.441Z,87021.20
2022-10-17T17:15:46.914Z,87020.80
2022-10-17T17:18:16.372Z,87019.40
2022-10-17T17:20:45.317Z,87015.40
2022-10-17T17:23:16.016Z,87013.60
2022-10-17T17:25:46.382Z,87010.80
2022-10-17T17:28:15.782Z,86999.00
2022-10-17T17:30:44.788Z,86999.20
2022-10-17T17:33:13.897Z,87000.00
2022-10-17T17:35:43.055Z,86997.20
2022-10-17T17:38:12.051Z,86990.60
2022-10-17T17:40:50.682Z,86990.60
2022-10-17T17:43:21.468Z,86979.60
2022-10-17T17:45:50.616Z,86977.20
2022-10-17T17:48:20.351Z,86971.00
2022-10-17T17:50:50.181Z,86973.00
2022-10-17T17:53:19.883Z,86967.40
2022-10-17T17:55:48.960Z,86972.80
2022-10-17T17:58:18.035Z,86967.60
2022-10-17T18:00:47.082Z,86968.60
2022-10-17T18:03:16.136Z,86964.20
2022-10-17T18:05:45.592Z,86958.40
2022-10-17T18:08:14.549Z,86963.20
2022-10-17T18:10:48.128Z,86959.40
2022-10-17T18:13:17.302Z,86955.40
2022-10-17T18:15:52.884Z,86949.60
2022-10-17T18:18:24.645Z,86946.00
2022-10-17T18:20:55.608Z,86942.40
2022-10-17T18:23:26.282Z,86938.20
2022-10-17T18:26:04.386Z,86936.20
2022-10-17T18:28:36.771Z,86933.00
2022-10-17T18:31:30.149Z,86928.40
2022-10-17T18:34:01.500Z,86922.00
2022-10-17T18:36:33.417Z,86921.60
2022-10-17T18:39:04.111Z,86912.00
2022-10-17T18:41:34.812Z,86917.00
2022-10-17T18:44:05.557Z,86915.20
2022-10-17T18:46:42.522Z,86909.00
2022-10-17T18:49:14.717Z,86910.80
2022-10-17T18:51:44.593Z,86906.40
2022-10-17T18:54:23.178Z,86905.40
2022-10-17T18:56:56.010Z,86903.80
2022-10-17T18:59:25.074Z,86896.80
2022-10-17T19:01:54.325Z,86891.00
2022-10-17T19:04:24.418Z,86887.40
2022-10-17T19:06:53.837Z,86890.20
2022-10-17T19:09:22.863Z,86883.80
2022-10-17T19:11:51.917Z,86875.20
2022-10-17T19:14:21.015Z,86877.00
2022-10-17T19:16:53.003Z,86880.20
2022-10-17T19:19:25.334Z,86882.60
2022-10-17T19:21:55.777Z,86880.20
2022-10-17T19:24:29.671Z,86882.80
2022-10-17T19:27:03.765Z,86880.40
2022-10-17T19:29:34.208Z,86872.60
2022-10-17T19:32:03.756Z,86871.00
2022-10-17T19:34:33.067Z,86870.80
2022-10-17T19:37:02.381Z,86868.20
2022-10-17T19:39:31.879Z,86859.00
2022-10-17T19:42:05.981Z,86853.60
2022-10-17T19:44:36.764Z,86852.60
2022-10-17T19:47:05.750Z,86852.00
2022-10-17T19:49:34.714Z,86846.60
2022-10-17T19:52:03.841Z,86842.40
2022-10-17T19:54:33.093Z,86844.20
2022-10-17T19:57:03.175Z,86836.20
2022-10-17T19:59:34.712Z,86839.00
2022-10-17T20:02:04.365Z,86835.20
2022-10-17T20:04:33.555Z,86829.60
2022-10-17T20:07:03.021Z,86824.60
2022-10-17T20:09:32.469Z,86822.80
2022-10-17T20:12:04.544Z,86820.00
2022-10-17T20:14:40.718Z,86816.60
2022-10-17T20:17:10.332Z,86811.00
2022-10-17T20:19:39.225Z,86805.60
2022-10-17T20:22:08.401Z,86808.20
2022-10-17T20:24:37.524Z,86803.40
2022-10-17T20:27:06.454Z,86805.00
2022-10-17T20:29:35.701Z,86803.60
2022-10-17T20:32:05.123Z,86802.00
2022-10-17T20:34:36.569Z,86794.40
2022-10-17T20:37:05.956Z,86797.20
2022-10-17T20:39:35.484Z,86794.00
2022-10-17T20:42:05.405Z,86794.60
2022-10-17T20:44:34.721Z,86793.00
2022-10-17T20:47:04.683Z,86792.60
2022-10-17T20:49:35.988Z,86790.80
2022-10-17T20:52:05.439Z,86795.20
2022-10-17T20:54:34.852Z,86787.00
2022-10-17T20:57:05.156Z,86786.80
2022-10-17T20:59:38.036Z,86782.00
2022-10-17T21:02:12.608Z,86780.40
2022-10-17T21:04:46.217Z,86774.80
2022-10-17T21:07:16.122Z,86774.60
2022-10-17T21:09:46.396Z,86775.00
2022-10-17T21:12:25.851Z,86774.80
2022-10-17T21:15:05.130Z,86770.20
2022-10-17T21:17:34.468Z,86768.40
2022-10-17T21:20:04.403Z,86761.60
2022-10-17T21:22:36.141Z,86760.00
2022-10-17T21:25:05.685Z,86760.20
2022-10-17T21:27:34.810Z,86757.40
2022-10-17T21:30:05.555Z,86756.40
2022-10-17T21:32:51.062Z,86754.40
2022-10-17T21:35:21.022Z,86751.80
2022-10-17T21:37:50.154Z,86750.60
2022-10-17T21:40:19.270Z,86747.00
2022-10-17T21:42:48.838Z,86742.60
2022-10-17T21:45:25.268Z,86737.80
2022-10-17T21:48:18.548Z,86741.00
2022-10-17T21:50:43.770Z,86736.60
2022-10-17T21:53:12.988Z,86736.80
2022-10-17T21:55:42.053Z,86740.80
2022-10-17T21:58:11.226Z,86738.80
2022-10-17T22:00:40.354Z,86737.60
2022-10-17T22:03:10.557Z,86736.20
2022-10-17T22:05:39.721Z,86735.60
2022-10-17T22:08:08.992Z,86743.00
2022-10-17T22:10:44.502Z,86742.80
2022-10-17T22:13:13.597Z,86742.00
2022-10-17T22:15:42.654Z,86743.00
2022-10-17T22:18:11.626Z,86745.80
2022-10-17T22:20:40.705Z,86746.60
2022-10-17T22:23:10.388Z,86751.20
2022-10-17T22:25:39.466Z,86753.20
2022-10-17T22:28:08.561Z,86749.40
2022-10-17T22:30:37.637Z,86750.40
2022-10-17T22:33:06.994Z,86750.00
2022-10-17T22:35:36.129Z,86750.40
2022-10-17T22:38:05.452Z,86745.80
2022-10-17T22:40:34.472Z,86746.20
2022-10-17T22:43:14.265Z,86748.40
2022-10-17T22:45:43.373Z,86750.40
2022-10-17T22:48:12.535Z,86746.00
2022-10-17T22:50:42.813Z,86748.40
2022-10-17T22:53:13.345Z,86743.20
2022-10-17T22:55:42.523Z,86745.00
2022-10-17T22:58:11.683Z,86741.80
2022-10-17T23:00:41.351Z,86742.00
2022-10-17T23:03:10.250Z,86740.60
2022-10-17T23:05:39.281Z,86742.00
2022-10-17T23:08:08.706Z,86745.80
2022-10-17T23:10:38.133Z,86744.20
2022-10-17T23:13:07.654Z,86749.60
2022-10-17T23:15:37.471Z,86747.40
2022-10-17T23:18:07.658Z,86746.80
2022-10-17T23:20:40.026Z,86744.80
2022-10-17T23:23:09.070Z,86745.20
2022-10-17T23:25:38.400Z,86740.60
2022-10-17T23:28:11.297Z,86748.60
2022-10-17T23:30:41.233Z,86743.60
2022-10-17T23:33:15.307Z,86746.40
2022-10-17T23:35:44.596Z,86750.00
2022-10-17T23:38:13.849Z,86751.20
2022-10-17T23:40:43.301Z,86754.40
2022-10-17T23:43:12.228Z,86752.20
2022-10-17T23:48:14.938Z,86760.60
2022-10-17T23:50:44.587Z,86761.40
2022-10-17T23:53:13.448Z,86761.60
2022-10-17T23:55:42.616Z,86763.60
2022-10-17T23:58:12.000Z,86765.00
